Startpagina
METAR-TAF:

METAR-TAF

Vliegvelden :

Aérodrome de Pontoise-Cormeilles-en-Vexin

Pontoise, Frankrijk

breedte: 49-05-48N, lengte: 002-02-27E, hoogte: 99 m

Actueel weer

Dit bericht is 13 minuten geleden gemaakt, om 12:30 UTC
Wind 6 kt uit het oostnoordoosten, variërend tussen het noordnoordoosten en het oostzuidoosten
Temperatuur 23°C
Vochtigheid 38%
Druk 1022 hPa
Zicht 10 km of meer
geen wolken onder 1500 m en geen cumulonimbus

METAR: LFPT 101230Z AUTO 06006KT 020V110 CAVOK 23/08 Q1022

Tijdstip: 14:43 (12:43 UTC)


TAF: ontbreekt

Waarnemingen en weersverwachtingen van meer dan 4000 vliegvelden (METAR en TAF).

De beschikbare stations zijn de gele en rode punten op de kaart.

Ga met uw muis naar het station om de naam te zien.

Klik dan om waarnemingen en weersverwachtingen te zien.

kaart wijzigen: klik op de groene knoppen met een zwart kruis om in te zoomen, op de groene knop met een streepje om uit te zoomen of op de groene pijlen voor aangrenzende kaarten.


METAR-TAF: